Time;durP1;ratioP1;P1;durP2;ratioP2;P2;SDS_P1;SDS_P2;PMS_P1;PMS_P2;Temp;Humidity;BMP_temperature;BMP_pressure;BME280_temperature;BME280_humidity;BME280_pressure;Samples;Min_cycle;Max_cycle;Signal;HPM_P1;HPM_P2
2023/06/12 00:00:54;;;;;;;16.93;15.73;;;14.90;99.90;;;;;;5062249;28;20295;-41
2023/06/12 00:03:23;;;;;;;16.13;15.13;;;14.80;99.90;;;;;;5062806;28;20419;-43
2023/06/12 00:05:49;;;;;;;16.77;15.67;;;14.70;99.90;;;;;;5061544;28;20504;-43
2023/06/12 00:08:17;;;;;;;16.30;15.20;;;14.70;99.90;;;;;;5062644;28;20446;-43
2023/06/12 00:10:45;;;;;;;17.27;15.80;;;14.70;99.90;;;;;;5062059;28;20442;-42
2023/06/12 00:13:12;;;;;;;17.10;15.80;;;14.60;99.90;;;;;;5062579;28;20438;-42
2023/06/12 00:15:38;;;;;;;17.17;15.87;;;14.60;99.90;;;;;;5061614;28;20504;-41
2023/06/12 00:18:04;;;;;;;18.03;16.73;;;14.50;99.90;;;;;;5060894;28;20741;-41
2023/06/12 00:20:31;;;;;;;16.60;15.50;;;14.50;99.90;;;;;;5062465;28;20866;-45
2023/06/12 00:22:57;;;;;;;16.50;15.40;;;14.40;99.90;;;;;;5062321;28;20423;-44
2023/06/12 00:25:23;;;;;;;16.90;15.70;;;14.40;99.90;;;;;;5060231;28;20483;-44
2023/06/12 00:27:48;;;;;;;16.83;15.57;;;14.40;99.90;;;;;;5062390;28;20481;-43
2023/06/12 00:30:14;;;;;;;16.67;15.57;;;14.40;99.90;;;;;;5062585;28;20178;-43
2023/06/12 00:32:40;;;;;;;16.93;15.70;;;14.30;99.90;;;;;;5062014;28;20264;-42
2023/06/12 00:35:06;;;;;;;17.20;15.90;;;14.20;99.90;;;;;;5062516;28;20518;-42
2023/06/12 00:37:33;;;;;;;16.87;15.67;;;14.20;99.90;;;;;;5060876;28;20205;-45
2023/06/12 00:39:59;;;;;;;16.37;15.27;;;14.20;99.90;;;;;;5061393;28;20435;-44
2023/06/12 00:42:38;;;;;;;16.73;15.63;;;14.10;99.90;;;;;;5061692;28;20431;-42
2023/06/12 00:45:05;;;;;;;17.30;16.00;;;14.10;99.90;;;;;;5042538;28;20475;-45
2023/06/12 00:47:30;;;;;;;16.80;15.60;;;14.10;99.90;;;;;;5059733;28;20900;-47
2023/06/12 00:49:58;;;;;;;17.10;15.70;;;14.00;99.90;;;;;;5060961;28;20465;-42
2023/06/12 00:52:26;;;;;;;17.33;16.03;;;14.00;99.90;;;;;;5061350;28;20188;-42
2023/06/12 00:54:53;;;;;;;15.60;14.53;;;13.90;99.90;;;;;;5061664;28;20514;-42
2023/06/12 00:57:22;;;;;;;16.87;15.67;;;13.90;99.90;;;;;;5060494;28;21004;-48
2023/06/12 00:59:48;;;;;;;16.43;15.33;;;13.80;99.90;;;;;;5061044;28;20918;-45
2023/06/12 01:02:14;;;;;;;16.47;15.30;;;13.80;99.90;;;;;;5060326;28;20451;-43
2023/06/12 01:04:42;;;;;;;16.70;15.57;;;13.80;99.90;;;;;;5059828;28;21850;-42
2023/06/12 01:07:20;;;;;;;16.67;15.47;;;13.70;99.90;;;;;;5042311;28;20447;-44
2023/06/12 01:09:52;;;;;;;16.50;15.30;;;13.70;99.90;;;;;;5042461;28;20453;-42
2023/06/12 01:12:19;;;;;;;16.53;15.33;;;13.70;99.90;;;;;;5059444;28;21125;-44
2023/06/12 01:14:47;;;;;;;16.30;15.10;;;13.60;99.90;;;;;;5058754;28;20443;-41
2023/06/12 01:17:13;;;;;;;16.77;15.57;;;13.60;99.90;;;;;;5059226;28;20446;-42
2023/06/12 01:19:41;;;;;;;16.77;15.57;;;13.50;99.90;;;;;;5059162;28;21130;-43
2023/06/12 01:22:10;;;;;;;17.33;16.03;;;13.50;99.90;;;;;;5059801;28;20195;-41
2023/06/12 01:24:57;;;;;;;15.67;14.63;;;13.50;99.90;;;;;;5041444;28;20711;-42
2023/06/12 01:27:55;;;;;;;16.50;15.20;;;13.50;99.90;;;;;;5059252;28;20471;-41
2023/06/12 01:30:46;;;;;;;16.37;15.27;;;13.40;99.90;;;;;;5060330;28;20918;-43
2023/06/12 01:33:17;;;;;;;16.00;14.80;;;13.40;99.90;;;;;;5040278;28;20534;-42
2023/06/12 01:35:46;;;;;;;15.57;14.47;;;13.30;99.90;;;;;;5059342;28;20454;-43
2023/06/12 01:38:17;;;;;;;16.50;15.10;;;13.20;99.90;;;;;;5059005;28;21555;-40
2023/06/12 01:40:46;;;;;;;15.93;14.77;;;13.20;99.90;;;;;;5060290;28;20443;-42
2023/06/12 01:43:12;;;;;;;15.27;14.37;;;13.20;99.90;;;;;;5057780;28;20431;-45
2023/06/12 01:45:38;;;;;;;16.10;15.00;;;13.10;99.90;;;;;;5058604;28;20471;-41
2023/06/12 01:48:05;;;;;;;16.73;15.60;;;13.10;99.90;;;;;;5060568;28;20260;-43
2023/06/12 01:50:31;;;;;;;16.63;15.47;;;13.00;99.90;;;;;;5057564;28;20245;-45
2023/06/12 01:52:56;;;;;;;15.93;14.83;;;13.00;99.90;;;;;;5059329;28;20581;-41
2023/06/12 01:55:22;;;;;;;16.33;15.13;;;13.00;99.90;;;;;;5059780;28;20435;-44
2023/06/12 01:57:48;;;;;;;16.47;15.27;;;13.10;99.90;;;;;;5058426;28;20667;-43
2023/06/12 02:00:15;;;;;;;15.57;14.33;;;13.10;99.90;;;;;;5059983;28;20465;-42
2023/06/12 02:02:42;;;;;;;14.83;13.90;;;13.00;99.90;;;;;;5058037;28;22219;-42
2023/06/12 02:05:08;;;;;;;15.80;14.70;;;13.10;99.90;;;;;;5059981;28;20506;-43
2023/06/12 02:07:33;;;;;;;15.60;14.50;;;13.00;99.90;;;;;;5059619;28;20577;-43
2023/06/12 02:09:59;;;;;;;15.93;14.83;;;13.00;99.90;;;;;;5058931;28;20440;-42
2023/06/12 02:12:24;;;;;;;16.40;15.20;;;13.00;99.90;;;;;;5059469;28;20186;-41
2023/06/12 02:14:50;;;;;;;15.50;14.40;;;13.00;99.90;;;;;;5059357;28;20204;-44
2023/06/12 02:17:18;;;;;;;15.80;14.80;;;13.00;99.90;;;;;;5059572;28;20316;-43
2023/06/12 02:19:46;;;;;;;15.03;14.13;;;13.00;99.90;;;;;;5055226;28;20185;-43
2023/06/12 02:22:11;;;;;;;16.07;14.97;;;13.00;99.90;;;;;;5058187;28;20439;-42
2023/06/12 02:24:37;;;;;;;16.10;14.90;;;13.00;99.90;;;;;;5059100;28;20487;-45
2023/06/12 02:27:03;;;;;;;15.70;14.60;;;13.00;99.90;;;;;;5059920;28;20185;-43
2023/06/12 02:29:29;;;;;;;15.93;14.90;;;13.00;99.90;;;;;;5059172;28;20182;-42
2023/06/12 02:31:54;;;;;;;16.27;15.07;;;13.00;99.90;;;;;;5059535;28;20450;-41
2023/06/12 02:34:20;;;;;;;16.13;15.03;;;12.90;99.90;;;;;;5058363;28;20189;-41
2023/06/12 02:36:47;;;;;;;16.90;15.53;;;12.90;99.90;;;;;;5059065;28;20197;-45
2023/06/12 02:39:14;;;;;;;15.77;14.57;;;12.80;99.90;;;;;;5059831;28;20181;-43
2023/06/12 02:41:40;;;;;;;16.47;15.27;;;12.80;99.90;;;;;;5060406;28;20857;-44
2023/06/12 02:44:06;;;;;;;16.73;15.63;;;12.80;99.90;;;;;;5058922;28;20474;-44
2023/06/12 02:46:31;;;;;;;16.20;15.10;;;12.80;99.90;;;;;;5058953;28;20458;-45
2023/06/12 02:48:57;;;;;;;15.90;14.80;;;12.70;99.90;;;;;;5040869;28;20193;-46
2023/06/12 02:51:23;;;;;;;15.17;14.17;;;12.60;99.90;;;;;;5059691;28;20639;-43
2023/06/12 02:53:49;;;;;;;16.83;15.73;;;12.60;99.90;;;;;;5060467;28;20246;-43
2023/06/12 02:56:14;;;;;;;15.87;14.77;;;12.60;99.90;;;;;;5058397;28;20185;-42
2023/06/12 02:58:40;;;;;;;16.03;14.97;;;12.50;99.90;;;;;;5059343;28;20926;-43
2023/06/12 03:01:06;;;;;;;16.80;15.63;;;12.50;99.90;;;;;;5041635;28;20198;-42
2023/06/12 03:03:32;;;;;;;15.53;14.30;;;12.50;99.90;;;;;;5059978;28;20944;-40
2023/06/12 03:05:58;;;;;;;15.20;14.10;;;12.40;99.90;;;;;;5041542;28;20478;-41
2023/06/12 03:08:23;;;;;;;15.57;14.47;;;12.40;99.90;;;;;;5058552;28;20208;-42
2023/06/12 03:10:49;;;;;;;16.23;15.03;;;12.30;99.90;;;;;;5040746;28;20941;-43
2023/06/12 03:13:14;;;;;;;16.23;15.13;;;12.30;99.90;;;;;;5061368;28;20185;-41
2023/06/12 03:15:40;;;;;;;16.87;15.57;;;12.30;99.90;;;;;;5062218;28;20602;-41
2023/06/12 03:18:06;;;;;;;15.90;14.80;;;12.20;99.90;;;;;;5062898;28;20311;-42
2023/06/12 03:20:33;;;;;;;15.50;14.40;;;12.20;99.90;;;;;;5063057;28;20197;-44
2023/06/12 03:22:59;;;;;;;16.77;15.47;;;12.20;99.90;;;;;;5062505;28;20204;-44
2023/06/12 03:25:25;;;;;;;16.47;15.27;;;12.20;99.90;;;;;;5063463;28;20824;-43
2023/06/12 03:27:51;;;;;;;15.83;14.70;;;12.20;99.90;;;;;;5062422;28;20454;-43
2023/06/12 03:30:16;;;;;;;16.53;15.40;;;12.10;99.90;;;;;;5063360;28;20430;-41
2023/06/12 03:32:42;;;;;;;16.47;15.33;;;12.10;99.90;;;;;;5061351;28;20188;-42
2023/06/12 03:35:08;;;;;;;15.87;14.67;;;12.10;99.90;;;;;;5062526;28;20189;-41
2023/06/12 03:37:33;;;;;;;16.27;14.97;;;12.10;99.90;;;;;;5063024;28;20543;-41
2023/06/12 03:39:59;;;;;;;15.47;14.27;;;12.00;99.90;;;;;;5062585;28;20239;-41
2023/06/12 03:42:24;;;;;;;15.07;14.07;;;12.00;99.90;;;;;;5061403;28;20212;-42
2023/06/12 03:44:50;;;;;;;14.87;13.87;;;12.00;99.90;;;;;;5059135;28;20213;-41
2023/06/12 03:47:16;;;;;;;14.73;13.60;;;12.00;99.90;;;;;;5062743;28;20193;-41
2023/06/12 03:49:42;;;;;;;16.00;14.80;;;12.00;99.90;;;;;;5062137;28;20192;-43
2023/06/12 03:52:07;;;;;;;15.70;14.70;;;12.00;99.90;;;;;;5062451;28;20439;-43
2023/06/12 03:54:33;;;;;;;14.43;13.53;;;12.00;99.90;;;;;;5061483;28;20181;-44
2023/06/12 03:56:59;;;;;;;15.93;14.73;;;12.10;99.90;;;;;;5062159;28;20189;-43
2023/06/12 03:59:24;;;;;;;15.53;14.43;;;12.10;99.90;;;;;;5060844;28;20227;-41
2023/06/12 04:01:51;;;;;;;15.33;14.13;;;12.10;99.90;;;;;;5062009;28;20216;-41
2023/06/12 04:04:17;;;;;;;14.63;13.53;;;12.00;99.90;;;;;;5061462;28;20208;-44
2023/06/12 04:06:45;;;;;;;15.20;14.17;;;12.10;99.90;;;;;;5059718;28;20485;-44
2023/06/12 04:09:15;;;;;;;14.80;13.70;;;12.10;99.90;;;;;;5060481;28;20197;-42
2023/06/12 04:11:42;;;;;;;14.63;13.60;;;12.10;99.90;;;;;;5060309;28;20467;-43
2023/06/12 04:14:08;;;;;;;15.77;14.57;;;12.20;99.90;;;;;;5062362;28;21372;-42
2023/06/12 04:16:34;;;;;;;16.57;15.37;;;12.20;99.90;;;;;;5062065;28;20446;-42
2023/06/12 04:19:03;;;;;;;16.80;15.33;;;12.20;99.90;;;;;;5037360;28;20961;-42
2023/06/12 04:24:55;;;;;;;17.87;16.37;;;12.40;99.90;;;;;;5058505;28;20625;-43
2023/06/12 04:27:21;;;;;;;17.37;16.00;;;12.40;99.90;;;;;;5041068;28;20523;-43
2023/06/12 04:29:47;;;;;;;16.57;15.37;;;12.40;99.90;;;;;;5059624;28;20496;-41
2023/06/12 04:32:13;;;;;;;16.17;14.97;;;12.40;99.90;;;;;;5041953;28;20443;-43
2023/06/12 04:34:40;;;;;;;16.90;15.60;;;12.50;99.90;;;;;;5060522;28;20202;-40
2023/06/12 04:37:08;;;;;;;15.47;14.33;;;12.50;99.90;;;;;;5060489;28;20754;-42
2023/06/12 04:39:36;;;;;;;15.87;14.77;;;12.50;99.90;;;;;;5058270;28;20777;-42
2023/06/12 04:42:03;;;;;;;17.60;16.30;;;12.50;99.90;;;;;;5061069;28;20434;-44
2023/06/12 04:44:31;;;;;;;16.43;15.33;;;12.60;99.90;;;;;;5061003;28;20471;-41
2023/06/12 04:47:01;;;;;;;16.03;14.77;;;12.60;99.90;;;;;;5060140;28;20435;-41
2023/06/12 04:49:26;;;;;;;15.87;14.67;;;12.60;99.90;;;;;;5060488;28;20474;-42
2023/06/12 04:51:52;;;;;;;15.93;14.63;;;12.70;99.90;;;;;;5059943;28;20510;-42
2023/06/12 04:54:19;;;;;;;15.50;14.30;;;12.80;99.90;;;;;;5060186;28;20214;-40
2023/06/12 04:56:47;;;;;;;15.70;14.50;;;12.90;99.90;;;;;;5060529;28;20185;-41
2023/06/12 04:59:16;;;;;;;15.13;14.03;;;12.90;99.90;;;;;;5060182;28;20848;-47
2023/06/12 05:01:44;;;;;;;15.63;14.43;;;12.90;99.90;;;;;;5059168;28;21100;-41
2023/06/12 05:04:10;;;;;;;16.00;14.70;;;13.00;99.90;;;;;;5059356;28;20466;-43
2023/06/12 05:06:37;;;;;;;15.47;14.37;;;13.00;99.90;;;;;;5059717;28;20848;-41
2023/06/12 05:09:06;;;;;;;14.63;13.53;;;13.10;99.90;;;;;;5060599;28;20419;-42
2023/06/12 05:11:31;;;;;;;15.23;14.23;;;13.20;99.90;;;;;;5059184;28;20435;-47
2023/06/12 05:13:57;;;;;;;15.97;14.83;;;13.30;99.90;;;;;;5042432;28;20484;-42
2023/06/12 05:16:23;;;;;;;16.00;14.80;;;13.40;99.90;;;;;;5058929;28;20189;-43
2023/06/12 05:18:48;;;;;;;15.40;14.30;;;13.40;99.90;;;;;;5040627;28;20245;-41
2023/06/12 05:21:14;;;;;;;15.90;14.90;;;13.50;99.90;;;;;;5058765;28;20224;-41
2023/06/12 05:23:40;;;;;;;15.10;14.00;;;13.60;99.90;;;;;;5059128;28;20225;-43
2023/06/12 05:26:06;;;;;;;15.67;14.57;;;13.60;99.90;;;;;;5058388;28;20524;-42
2023/06/12 05:28:31;;;;;;;14.93;13.80;;;13.70;99.90;;;;;;5057997;28;20432;-42
2023/06/12 05:30:57;;;;;;;15.90;14.70;;;13.80;99.90;;;;;;5059659;28;20177;-41
2023/06/12 05:33:23;;;;;;;15.93;14.83;;;13.90;99.90;;;;;;5058649;28;20259;-43
2023/06/12 05:35:49;;;;;;;14.40;13.50;;;13.90;99.90;;;;;;5058589;28;20639;-40
2023/06/12 05:38:15;;;;;;;15.10;14.00;;;14.00;99.90;;;;;;5060070;28;20188;-40
2023/06/12 05:40:41;;;;;;;14.13;13.13;;;14.10;99.90;;;;;;5058923;28;20443;-42
2023/06/12 05:43:06;;;;;;;13.87;12.97;;;14.20;99.90;;;;;;5059800;28;20805;-46
2023/06/12 05:45:32;;;;;;;13.93;12.97;;;14.30;99.90;;;;;;5058183;28;20205;-42
2023/06/12 05:47:58;;;;;;;14.10;13.20;;;14.40;99.90;;;;;;5057983;28;20189;-42
2023/06/12 05:50:23;;;;;;;14.70;13.70;;;14.50;99.90;;;;;;5059079;28;20189;-44
2023/06/12 05:52:49;;;;;;;13.90;13.00;;;14.60;99.90;;;;;;5058568;28;20699;-44
2023/06/12 05:55:17;;;;;;;14.43;13.50;;;14.80;99.90;;;;;;5059756;28;20212;-43
2023/06/12 05:57:42;;;;;;;14.10;13.27;;;15.00;99.90;;;;;;5059266;28;20439;-42
2023/06/12 06:00:10;;;;;;;14.17;13.17;;;15.10;99.70;;;;;;5058992;28;20441;-43
2023/06/12 06:02:37;;;;;;;14.00;13.10;;;15.20;99.80;;;;;;5060186;28;20643;-40
2023/06/12 06:05:03;;;;;;;13.43;12.63;;;15.30;99.80;;;;;;5058356;28;20601;-41
2023/06/12 06:07:30;;;;;;;13.20;12.30;;;15.40;99.30;;;;;;5059493;28;20435;-44
2023/06/12 06:09:55;;;;;;;13.73;12.90;;;15.50;99.60;;;;;;5059459;28;20434;-41
2023/06/12 06:12:21;;;;;;;12.50;11.63;;;15.60;99.40;;;;;;5058726;28;20570;-45
2023/06/12 06:14:47;;;;;;;13.47;12.70;;;15.70;98.40;;;;;;5058240;28;20234;-43
2023/06/12 06:17:13;;;;;;;14.17;13.30;;;15.80;98.20;;;;;;5057048;28;20913;-41
2023/06/12 06:19:39;;;;;;;12.80;12.00;;;15.90;97.90;;;;;;5058299;28;20181;-44
2023/06/12 06:22:04;;;;;;;13.53;12.73;;;16.00;97.30;;;;;;5056773;28;20443;-42
2023/06/12 06:24:30;;;;;;;13.20;12.40;;;16.10;96.90;;;;;;5058020;28;20624;-43
2023/06/12 06:26:57;;;;;;;12.90;12.10;;;16.30;96.70;;;;;;5058497;28;20594;-48
2023/06/12 06:29:22;;;;;;;14.70;13.70;;;16.60;96.30;;;;;;5058838;28;20184;-43
2023/06/12 06:31:48;;;;;;;14.00;13.20;;;16.70;95.70;;;;;;5058413;28;20465;-43
2023/06/12 06:34:14;;;;;;;13.83;13.03;;;16.80;95.50;;;;;;5057254;28;20262;-42
2023/06/12 06:36:39;;;;;;;14.00;13.20;;;17.00;95.30;;;;;;5057129;28;20200;-49
2023/06/12 06:39:05;;;;;;;15.07;14.10;;;17.20;94.80;;;;;;5058953;28;20550;-45
2023/06/12 06:41:31;;;;;;;13.77;12.97;;;17.30;94.40;;;;;;5058900;28;20196;-42
2023/06/12 06:43:56;;;;;;;14.50;13.67;;;17.40;94.20;;;;;;5041016;28;20403;-44
2023/06/12 06:46:22;;;;;;;13.87;13.07;;;17.50;93.80;;;;;;5058634;28;20189;-44
2023/06/12 06:48:47;;;;;;;14.33;13.47;;;17.70;92.90;;;;;;5061272;28;20651;-42
2023/06/12 06:51:13;;;;;;;14.57;13.20;;;17.80;92.80;;;;;;5062245;28;20702;-41
2023/06/12 06:53:38;;;;;;;15.03;14.03;;;17.90;92.50;;;;;;5059994;28;20298;-40
2023/06/12 06:56:04;;;;;;;14.60;13.70;;;18.00;92.10;;;;;;5062240;28;20276;-43
2023/06/12 06:58:30;;;;;;;15.40;14.30;;;18.10;92.20;;;;;;5062739;28;20257;-45
2023/06/12 07:00:55;;;;;;;14.20;13.30;;;18.30;91.60;;;;;;5062212;28;21066;-43
2023/06/12 07:03:21;;;;;;;15.03;14.13;;;18.40;91.20;;;;;;5062160;28;20200;-46
2023/06/12 07:05:47;;;;;;;14.37;13.57;;;18.60;90.80;;;;;;5062046;28;20216;-42
2023/06/12 07:08:12;;;;;;;13.37;12.57;;;18.70;90.20;;;;;;5062469;28;20194;-46
2023/06/12 07:10:38;;;;;;;14.07;13.03;;;18.70;91.00;;;;;;5061734;28;20276;-42
2023/06/12 07:13:03;;;;;;;14.80;14.00;;;18.80;90.80;;;;;;5062628;28;20185;-42
2023/06/12 07:15:29;;;;;;;13.47;12.67;;;18.90;90.80;;;;;;5062390;28;20189;-47
2023/06/12 07:17:55;;;;;;;14.50;13.60;;;19.10;89.70;;;;;;5043011;28;20858;-41
2023/06/12 07:20:20;;;;;;;13.90;13.10;;;19.20;89.60;;;;;;5061457;28;20197;-41
2023/06/12 07:22:49;;;;;;;13.60;12.80;;;19.30;89.40;;;;;;5060609;28;20376;-45
2023/06/12 07:25:14;;;;;;;14.03;13.23;;;19.40;88.50;;;;;;5060252;28;20462;-45
2023/06/12 07:27:40;;;;;;;15.23;14.33;;;19.50;87.50;;;;;;5061546;28;20673;-42
2023/06/12 07:30:06;;;;;;;13.60;12.80;;;19.60;86.90;;;;;;5060250;28;20185;-50
2023/06/12 07:32:32;;;;;;;13.73;13.00;;;19.70;86.30;;;;;;5061381;28;20185;-53
2023/06/12 07:34:58;;;;;;;15.33;14.23;;;19.90;85.20;;;;;;5043181;28;20453;-42
2023/06/12 07:37:23;;;;;;;15.53;14.20;;;20.20;83.30;;;;;;5059988;28;20619;-41
2023/06/12 07:39:50;;;;;;;15.30;14.40;;;20.40;81.90;;;;;;5042674;28;20448;-42
2023/06/12 07:42:15;;;;;;;14.73;13.83;;;20.50;79.80;;;;;;5037517;28;20190;-45
2023/06/12 07:44:42;;;;;;;14.10;13.30;;;20.60;75.20;;;;;;5037959;28;22175;-43
2023/06/12 07:47:07;;;;;;;15.03;14.23;;;20.80;73.70;;;;;;5037574;28;20173;-43
2023/06/12 07:49:33;;;;;;;14.80;13.90;;;21.00;74.00;;;;;;5039132;28;20431;-55
2023/06/12 07:51:59;;;;;;;14.20;13.20;;;21.20;71.40;;;;;;5039184;28;20189;-55
2023/06/12 07:54:25;;;;;;;13.60;12.73;;;21.30;68.10;;;;;;5040930;28;20186;-51
2023/06/12 07:56:51;;;;;;;14.80;13.67;;;21.60;64.90;;;;;;5050144;28;20595;-50
2023/06/12 07:59:18;;;;;;;14.20;13.40;;;21.80;60.10;;;;;;5061699;28;20193;-46
2023/06/12 08:01:44;;;;;;;13.27;12.67;;;22.00;55.90;;;;;;5060380;28;20434;-50
2023/06/12 08:04:10;;;;;;;13.47;12.70;;;22.20;56.10;;;;;;5061912;28;20419;-50
2023/06/12 08:06:42;;;;;;;13.30;12.60;;;22.40;52.00;;;;;;5061247;28;20246;-53
2023/06/12 08:09:10;;;;;;;13.20;12.60;;;22.70;50.00;;;;;;5060598;28;20423;-54
2023/06/12 08:11:37;;;;;;;12.60;11.90;;;23.00;48.00;;;;;;5043163;28;20439;-55
2023/06/12 08:14:03;;;;;;;14.10;13.30;;;23.40;45.10;;;;;;5060042;28;20444;-54
2023/06/12 08:16:28;;;;;;;13.27;12.57;;;23.60;43.00;;;;;;5057947;28;20458;-54
2023/06/12 08:18:54;;;;;;;13.90;12.70;;;23.90;41.60;;;;;;5060280;28;20431;-53
2023/06/12 08:21:19;;;;;;;13.13;12.27;;;24.10;40.20;;;;;;5059023;28;20185;-50
2023/06/12 08:23:45;;;;;;;13.00;12.30;;;24.30;38.20;;;;;;5042529;28;20729;-51
2023/06/12 08:26:11;;;;;;;13.87;13.07;;;24.40;37.20;;;;;;5059794;28;20209;-49
2023/06/12 08:28:37;;;;;;;11.83;11.23;;;24.50;99.90;;;;;;5060302;28;20185;-43
2023/06/12 08:31:04;;;;;;;12.57;11.87;;;24.70;99.90;;;;;;5060420;28;20169;-45
2023/06/12 08:33:30;;;;;;;11.87;11.27;;;24.80;99.90;;;;;;5061058;28;20877;-44
2023/06/12 08:35:58;;;;;;;13.03;12.27;;;25.00;99.90;;;;;;5059979;28;20795;-43
2023/06/12 08:38:23;;;;;;;12.73;12.03;;;25.00;99.90;;;;;;5060780;28;20435;-47
2023/06/12 08:40:53;;;;;;;13.00;12.30;;;25.00;99.90;;;;;;5059599;28;20641;-44
2023/06/12 08:43:18;;;;;;;12.50;11.90;;;24.90;99.90;;;;;;5060574;28;20250;-48
2023/06/12 08:45:47;;;;;;;12.40;11.80;;;24.90;99.90;;;;;;5059154;28;20466;-43
2023/06/12 08:48:17;;;;;;;11.97;11.27;;;25.00;99.90;;;;;;5060298;28;20181;-48
2023/06/12 08:50:46;;;;;;;12.03;11.43;;;25.10;99.90;;;;;;5060445;28;20459;-42
2023/06/12 08:53:12;;;;;;;12.30;11.70;;;25.20;99.90;;;;;;5059534;28;20443;-41
2023/06/12 08:55:39;;;;;;;11.43;10.83;;;25.40;99.90;;;;;;5059606;28;20447;-44
2023/06/12 08:58:09;;;;;;;12.80;12.20;;;25.60;99.90;;;;;;5059102;28;21580;-42
2023/06/12 09:00:35;;;;;;;12.13;11.37;;;25.90;99.90;;;;;;5059575;28;20467;-44
2023/06/12 09:03:04;;;;;;;12.23;11.53;;;25.80;99.90;;;;;;5059957;28;20492;-45
2023/06/12 09:05:33;;;;;;;11.60;10.90;;;25.80;99.90;;;;;;5059827;28;20471;-42
2023/06/12 09:08:05;;;;;;;11.00;10.30;;;25.90;99.90;;;;;;5060595;28;20771;-42
2023/06/12 09:10:35;;;;;;;12.70;12.00;;;26.10;99.90;;;;;;5058918;28;20443;-45
2023/06/12 09:13:09;;;;;;;11.10;10.50;;;26.30;99.90;;;;;;5056818;28;20512;-45
2023/06/12 09:15:37;;;;;;;11.77;11.17;;;26.70;99.90;;;;;;5059597;28;20863;-47
2023/06/12 09:18:07;;;;;;;11.47;10.87;;;27.00;99.90;;;;;;5059323;28;20435;-45
2023/06/12 09:20:33;;;;;;;12.03;11.43;;;27.10;99.90;;;;;;5058320;28;20632;-45
2023/06/12 09:23:06;;;;;;;12.70;12.00;;;27.30;99.90;;;;;;5059063;28;20447;-43
2023/06/12 09:25:42;;;;;;;11.23;10.70;;;27.40;99.90;;;;;;5059286;28;20793;-45
2023/06/12 09:28:09;;;;;;;11.33;10.73;;;27.50;99.90;;;;;;5059740;28;20917;-45
2023/06/12 09:30:39;;;;;;;12.40;11.70;;;27.70;99.90;;;;;;5059626;28;20883;-46
2023/06/12 09:33:06;;;;;;;12.40;11.80;;;27.90;99.90;;;;;;5058502;28;20455;-44
2023/06/12 09:35:32;;;;;;;11.77;11.27;;;28.20;99.90;;;;;;5059271;28;20443;-43
2023/06/12 09:37:58;;;;;;;12.20;11.60;;;28.90;99.90;;;;;;5059804;28;20501;-42
2023/06/12 09:40:24;;;;;;;11.60;11.07;;;29.40;99.90;;;;;;5059139;28;20463;-47
2023/06/12 09:42:50;;;;;;;11.43;10.93;;;29.70;99.90;;;;;;5040566;28;20657;-44
2023/06/12 09:45:18;;;;;;;11.73;11.13;;;30.20;99.90;;;;;;5059080;28;20744;-44
2023/06/12 09:47:48;;;;;;;12.43;11.83;;;30.50;99.90;;;;;;5039979;28;20193;-44
2023/06/12 09:50:17;;;;;;;11.47;10.97;;;30.90;99.90;;;;;;5057999;28;21032;-42
2023/06/12 09:52:45;;;;;;;12.10;11.50;;;31.10;99.90;;;;;;5058744;28;20478;-45
2023/06/12 09:55:15;;;;;;;12.50;11.90;;;31.50;99.90;;;;;;5059256;28;20504;-46
2023/06/12 09:57:52;;;;;;;11.40;10.90;;;31.70;99.90;;;;;;5058820;28;21035;-45
2023/06/12 10:00:19;;;;;;;10.97;10.47;;;32.00;99.90;;;;;;5058389;28;20804;-44
2023/06/12 10:02:56;;;;;;;12.47;11.87;;;32.30;99.90;;;;;;5058549;28;20601;-44
2023/06/12 10:05:31;;;;;;;12.70;12.10;;;32.30;99.90;;;;;;5040933;28;20499;-42
2023/06/12 10:07:59;;;;;;;11.37;10.77;;;32.40;99.90;;;;;;5059475;28;20422;-44
2023/06/12 10:10:25;;;;;;;11.33;10.83;;;32.70;99.90;;;;;;5057927;28;20459;-45
2023/06/12 10:12:52;;;;;;;9.67;9.27;;;33.00;99.90;;;;;;5059461;28;20579;-43
2023/06/12 10:15:20;;;;;;;11.90;11.40;;;33.20;99.90;;;;;;5058860;28;20442;-46
2023/06/12 10:17:47;;;;;;;12.33;11.73;;;33.40;99.90;;;;;;5057317;28;20546;-43
2023/06/12 10:20:14;;;;;;;11.60;11.10;;;33.50;99.90;;;;;;5058469;28;20439;-46
2023/06/12 10:22:40;;;;;;;11.90;11.30;;;33.40;99.90;;;;;;5057630;28;20447;-46
2023/06/12 10:25:08;;;;;;;11.27;10.73;;;33.40;99.90;;;;;;5058009;28;21107;-41
2023/06/12 10:27:36;;;;;;;12.60;12.00;;;33.60;99.90;;;;;;5057865;28;20204;-44
2023/06/12 10:30:03;;;;;;;11.10;10.50;;;33.90;99.90;;;;;;5057771;28;21123;-49
2023/06/12 10:32:32;;;;;;;11.37;10.87;;;34.20;99.90;;;;;;5058469;28;20465;-45
2023/06/12 10:34:59;;;;;;;11.77;11.23;;;34.60;99.90;;;;;;5057671;28;20466;-47
2023/06/12 10:37:33;;;;;;;11.73;11.23;;;34.60;99.90;;;;;;5059235;28;20410;-44
2023/06/12 10:40:15;;;;;;;12.00;11.40;;;34.50;99.90;;;;;;5057813;28;20830;-43
2023/06/12 10:42:51;;;;;;;12.77;12.17;;;34.60;99.90;;;;;;5058296;28;20990;-47
2023/06/12 10:45:31;;;;;;;11.20;10.70;;;34.50;99.90;;;;;;5040172;28;20477;-50
2023/06/12 10:48:02;;;;;;;11.30;10.80;;;34.90;99.90;;;;;;5058072;28;20456;-45
2023/06/12 10:50:42;;;;;;;11.50;11.00;;;35.20;99.90;;;;;;5057534;28;20526;-46
2023/06/12 10:53:11;;;;;;;12.43;11.83;;;35.60;99.90;;;;;;5058667;28;20439;-42
2023/06/12 10:55:38;;;;;;;12.70;12.10;;;35.20;99.90;;;;;;5058306;28;21185;-46
2023/06/12 10:58:06;;;;;;;11.93;11.43;;;35.40;99.90;;;;;;5040479;28;20447;-43
2023/06/12 11:00:46;;;;;;;12.27;11.67;;;35.80;99.90;;;;;;5058298;28;20438;-43
2023/06/12 11:03:21;;;;;;;12.13;11.63;;;35.60;99.90;;;;;;5058495;28;20492;-47
2023/06/12 11:05:54;;;;;;;12.30;11.70;;;35.60;99.90;;;;;;5057516;28;20458;-45
2023/06/12 11:08:20;;;;;;;12.40;11.80;;;35.60;99.90;;;;;;5057595;28;20419;-44
2023/06/12 11:10:46;;;;;;;10.90;10.40;;;35.50;99.90;;;;;;5058637;28;20416;-46
2023/06/12 11:13:12;;;;;;;11.80;11.30;;;36.00;99.90;;;;;;5056378;28;20435;-42
2023/06/12 11:15:46;;;;;;;11.97;11.47;;;36.20;99.90;;;;;;5059032;28;20940;-43
2023/06/12 11:18:12;;;;;;;12.97;12.27;;;36.20;99.90;;;;;;5057475;28;20189;-42
2023/06/12 11:20:39;;;;;;;11.83;11.33;;;36.10;99.90;;;;;;5058198;28;20902;-45
2023/06/12 11:23:06;;;;;;;12.10;11.50;;;36.60;99.90;;;;;;5057717;28;20828;-45
2023/06/12 11:25:42;;;;;;;12.90;12.23;;;36.70;99.90;;;;;;5058366;28;20521;-45
2023/06/12 11:28:08;;;;;;;12.10;11.50;;;37.30;99.90;;;;;;5058729;28;20443;-47
2023/06/12 11:30:33;;;;;;;12.30;11.70;;;37.30;99.90;;;;;;5057833;28;20443;-48
2023/06/12 11:33:10;;;;;;;11.47;10.97;;;37.60;99.90;;;;;;5057843;28;20595;-43
2023/06/12 11:35:40;;;;;;;12.67;12.07;;;38.10;99.90;;;;;;5060651;28;20196;-47
2023/06/12 11:38:06;;;;;;;11.53;11.03;;;37.90;99.90;;;;;;5061593;28;20458;-47
2023/06/12 11:40:31;;;;;;;12.63;12.07;;;38.10;99.90;;;;;;5060619;28;20447;-46
2023/06/12 11:42:57;;;;;;;13.27;12.67;;;38.00;99.90;;;;;;5060959;28;20742;-44
2023/06/12 11:45:23;;;;;;;12.20;11.50;;;38.10;99.90;;;;;;5061254;28;20242;-42
2023/06/12 11:47:49;;;;;;;12.47;11.87;;;38.30;99.90;;;;;;5061362;28;20192;-45
2023/06/12 11:50:17;;;;;;;12.23;11.60;;;38.50;99.90;;;;;;5062498;28;20215;-47
2023/06/12 11:52:45;;;;;;;12.30;11.70;;;38.00;99.90;;;;;;5061039;28;20940;-47
2023/06/12 11:55:12;;;;;;;12.30;11.80;;;38.00;99.90;;;;;;5061694;28;20423;-46
2023/06/12 11:57:38;;;;;;;11.00;10.50;;;37.80;99.90;;;;;;5060153;28;20439;-48
2023/06/12 12:00:11;;;;;;;11.63;11.13;;;37.70;99.90;;;;;;5060389;28;20435;-45
2023/06/12 12:02:40;;;;;;;12.70;12.10;;;37.20;99.90;;;;;;5060824;28;20909;-49
2023/06/12 12:05:08;;;;;;;13.73;12.93;;;37.30;99.90;;;;;;5061968;28;20453;-45
2023/06/12 12:07:38;;;;;;;13.30;12.60;;;37.30;99.90;;;;;;5060611;28;20534;-45
2023/06/12 12:10:08;;;;;;;13.23;12.60;;;37.30;99.90;;;;;;5061650;28;20426;-44
2023/06/12 12:12:46;;;;;;;13.83;13.13;;;37.40;99.90;;;;;;5061144;28;20462;-45
2023/06/12 12:15:14;;;;;;;13.43;12.80;;;37.10;99.90;;;;;;5059982;28;21044;-43
2023/06/12 12:17:41;;;;;;;13.23;12.53;;;36.20;99.90;;;;;;5059111;28;20514;-43
2023/06/12 12:20:17;;;;;;;12.60;12.10;;;36.00;99.90;;;;;;5059522;28;20427;-49
2023/06/12 12:22:47;;;;;;;13.57;12.87;;;35.90;99.90;;;;;;5059592;28;20764;-48
2023/06/12 12:25:27;;;;;;;12.87;12.27;;;36.10;99.90;;;;;;5060174;28;20479;-44
2023/06/12 12:27:56;;;;;;;13.30;12.40;;;36.30;99.90;;;;;;5042208;28;20939;-45
2023/06/12 12:30:22;;;;;;;12.70;12.10;;;36.70;99.90;;;;;;5059424;28;20465;-47
2023/06/12 12:32:51;;;;;;;12.83;12.13;;;37.10;99.90;;;;;;5061147;28;20504;-42